sensor_id;sensor_type;location;lat;lon;timestamp;pressure;altitude;pressure_sealevel;temperature;humidity
59608;BME280;45426;44.726;10.390;2024-02-26T00:00:29;99715.53;;;7.28;100.00
59608;BME280;45426;44.726;10.390;2024-02-26T00:02:55;99700.94;;;7.71;100.00
59608;BME280;45426;44.726;10.390;2024-02-26T00:05:21;99703.25;;;7.09;100.00
59608;BME280;45426;44.726;10.390;2024-02-26T00:07:46;99699.06;;;7.12;100.00
59608;BME280;45426;44.726;10.390;2024-02-26T00:10:13;99693.34;;;7.13;100.00
59608;BME280;45426;44.726;10.390;2024-02-26T00:12:38;99689.91;;;7.04;100.00
59608;BME280;45426;44.726;10.390;2024-02-26T00:15:05;99685.25;;;6.84;100.00
59608;BME280;45426;44.726;10.390;2024-02-26T00:17:31;99684.16;;;6.85;100.00
59608;BME280;45426;44.726;10.390;2024-02-26T00:19:56;99685.84;;;6.89;100.00
59608;BME280;45426;44.726;10.390;2024-02-26T00:22:22;99677.16;;;6.84;100.00
59608;BME280;45426;44.726;10.390;2024-02-26T00:24:47;99675.94;;;6.64;100.00
59608;BME280;45426;44.726;10.390;2024-02-26T00:27:13;99664.44;;;6.84;100.00
59608;BME280;45426;44.726;10.390;2024-02-26T00:29:38;99678.03;;;6.96;100.00
59608;BME280;45426;44.726;10.390;2024-02-26T00:32:04;99676.16;;;6.88;100.00
59608;BME280;45426;44.726;10.390;2024-02-26T00:34:29;99680.00;;;6.87;100.00
59608;BME280;45426;44.726;10.390;2024-02-26T00:36:55;99667.88;;;6.93;100.00
59608;BME280;45426;44.726;10.390;2024-02-26T00:39:20;99667.34;;;7.30;100.00
59608;BME280;45426;44.726;10.390;2024-02-26T00:41:45;99667.44;;;7.12;100.00
59608;BME280;45426;44.726;10.390;2024-02-26T00:44:11;99664.88;;;7.16;100.00
59608;BME280;45426;44.726;10.390;2024-02-26T00:46:36;99665.84;;;7.41;100.00
59608;BME280;45426;44.726;10.390;2024-02-26T00:49:02;99666.53;;;7.92;100.00
59608;BME280;45426;44.726;10.390;2024-02-26T00:51:28;99659.78;;;7.98;100.00
59608;BME280;45426;44.726;10.390;2024-02-26T00:53:54;99661.41;;;7.15;100.00
59608;BME280;45426;44.726;10.390;2024-02-26T00:56:20;99652.94;;;7.47;100.00
59608;BME280;45426;44.726;10.390;2024-02-26T00:58:45;99652.25;;;7.50;100.00
59608;BME280;45426;44.726;10.390;2024-02-26T01:01:10;99644.94;;;7.29;100.00
59608;BME280;45426;44.726;10.390;2024-02-26T01:03:36;99634.94;;;7.30;100.00
59608;BME280;45426;44.726;10.390;2024-02-26T01:06:01;99638.97;;;7.45;100.00
59608;BME280;45426;44.726;10.390;2024-02-26T01:08:27;99640.19;;;8.02;100.00
59608;BME280;45426;44.726;10.390;2024-02-26T01:10:52;99638.06;;;7.74;100.00
59608;BME280;45426;44.726;10.390;2024-02-26T01:13:18;99636.31;;;7.90;100.00
59608;BME280;45426;44.726;10.390;2024-02-26T01:15:43;99631.63;;;8.00;100.00
59608;BME280;45426;44.726;10.390;2024-02-26T01:18:09;99626.06;;;7.63;100.00
59608;BME280;45426;44.726;10.390;2024-02-26T01:20:35;99622.22;;;7.30;100.00
59608;BME280;45426;44.726;10.390;2024-02-26T01:23:00;99624.72;;;7.35;100.00
59608;BME280;45426;44.726;10.390;2024-02-26T01:25:25;99611.91;;;7.24;100.00
59608;BME280;45426;44.726;10.390;2024-02-26T01:27:51;99618.25;;;7.28;100.00
59608;BME280;45426;44.726;10.390;2024-02-26T01:30:16;99607.97;;;7.42;100.00
59608;BME280;45426;44.726;10.390;2024-02-26T01:32:42;99613.84;;;7.23;100.00
59608;BME280;45426;44.726;10.390;2024-02-26T01:35:08;99609.22;;;7.24;100.00
59608;BME280;45426;44.726;10.390;2024-02-26T01:37:36;99607.66;;;7.23;100.00
59608;BME280;45426;44.726;10.390;2024-02-26T01:40:01;99597.22;;;7.54;100.00
59608;BME280;45426;44.726;10.390;2024-02-26T01:42:29;99593.88;;;7.15;100.00
59608;BME280;45426;44.726;10.390;2024-02-26T01:44:56;99594.94;;;6.72;100.00
59608;BME280;45426;44.726;10.390;2024-02-26T01:47:22;99600.25;;;7.32;100.00
59608;BME280;45426;44.726;10.390;2024-02-26T01:49:48;99605.53;;;7.28;100.00
59608;BME280;45426;44.726;10.390;2024-02-26T01:52:14;99606.31;;;7.50;100.00
59608;BME280;45426;44.726;10.390;2024-02-26T01:54:41;99612.56;;;7.63;100.00
59608;BME280;45426;44.726;10.390;2024-02-26T01:57:08;99612.88;;;7.61;100.00
59608;BME280;45426;44.726;10.390;2024-02-26T01:59:34;99599.00;;;7.50;100.00
59608;BME280;45426;44.726;10.390;2024-02-26T02:02:01;99595.31;;;7.34;100.00
59608;BME280;45426;44.726;10.390;2024-02-26T02:04:29;99598.41;;;7.24;100.00
59608;BME280;45426;44.726;10.390;2024-02-26T02:06:55;99598.16;;;7.37;100.00
59608;BME280;45426;44.726;10.390;2024-02-26T02:09:22;99600.06;;;7.16;100.00
59608;BME280;45426;44.726;10.390;2024-02-26T02:11:48;99589.78;;;7.09;100.00
59608;BME280;45426;44.726;10.390;2024-02-26T02:14:14;99591.25;;;7.28;100.00
59608;BME280;45426;44.726;10.390;2024-02-26T02:16:39;99588.31;;;7.33;100.00
59608;BME280;45426;44.726;10.390;2024-02-26T02:19:05;99580.16;;;7.21;100.00
59608;BME280;45426;44.726;10.390;2024-02-26T02:21:30;99587.25;;;7.46;100.00
59608;BME280;45426;44.726;10.390;2024-02-26T02:23:56;99579.31;;;7.29;100.00
59608;BME280;45426;44.726;10.390;2024-02-26T02:26:21;99572.91;;;7.33;100.00
59608;BME280;45426;44.726;10.390;2024-02-26T02:28:48;99580.50;;;7.19;100.00
59608;BME280;45426;44.726;10.390;2024-02-26T02:31:14;99578.44;;;7.16;100.00
59608;BME280;45426;44.726;10.390;2024-02-26T02:33:41;99577.97;;;7.14;100.00
59608;BME280;45426;44.726;10.390;2024-02-26T02:36:07;99579.09;;;7.34;100.00
59608;BME280;45426;44.726;10.390;2024-02-26T02:38:36;99582.00;;;7.29;100.00
59608;BME280;45426;44.726;10.390;2024-02-26T02:41:02;99578.56;;;7.19;100.00
59608;BME280;45426;44.726;10.390;2024-02-26T02:43:27;99577.91;;;7.44;100.00
59608;BME280;45426;44.726;10.390;2024-02-26T02:45:52;99581.44;;;7.56;100.00
59608;BME280;45426;44.726;10.390;2024-02-26T02:48:18;99585.06;;;7.61;100.00
59608;BME280;45426;44.726;10.390;2024-02-26T02:50:44;99578.94;;;7.51;100.00
59608;BME280;45426;44.726;10.390;2024-02-26T02:53:10;99584.03;;;6.90;100.00
59608;BME280;45426;44.726;10.390;2024-02-26T02:55:35;99586.53;;;6.74;100.00
59608;BME280;45426;44.726;10.390;2024-02-26T02:58:01;99588.31;;;6.91;100.00
59608;BME280;45426;44.726;10.390;2024-02-26T03:00:26;99577.16;;;7.22;100.00
59608;BME280;45426;44.726;10.390;2024-02-26T03:02:51;99566.19;;;7.39;100.00
59608;BME280;45426;44.726;10.390;2024-02-26T03:05:17;99563.69;;;7.34;100.00
59608;BME280;45426;44.726;10.390;2024-02-26T03:07:42;99563.94;;;7.42;100.00
59608;BME280;45426;44.726;10.390;2024-02-26T03:10:08;99561.16;;;7.50;100.00
59608;BME280;45426;44.726;10.390;2024-02-26T03:12:34;99557.38;;;7.09;100.00
59608;BME280;45426;44.726;10.390;2024-02-26T03:14:59;99551.00;;;6.63;100.00
59608;BME280;45426;44.726;10.390;2024-02-26T03:17:28;99557.44;;;6.79;100.00
59608;BME280;45426;44.726;10.390;2024-02-26T03:19:54;99549.50;;;7.37;100.00
59608;BME280;45426;44.726;10.390;2024-02-26T03:22:19;99531.38;;;7.38;100.00
59608;BME280;45426;44.726;10.390;2024-02-26T03:24:46;99533.03;;;7.30;100.00
59608;BME280;45426;44.726;10.390;2024-02-26T03:27:11;99530.94;;;7.36;100.00
59608;BME280;45426;44.726;10.390;2024-02-26T03:29:37;99529.03;;;7.82;100.00
59608;BME280;45426;44.726;10.390;2024-02-26T03:32:02;99525.25;;;7.62;100.00
59608;BME280;45426;44.726;10.390;2024-02-26T03:34:28;99530.59;;;7.83;100.00
59608;BME280;45426;44.726;10.390;2024-02-26T03:36:55;99535.28;;;7.62;100.00
59608;BME280;45426;44.726;10.390;2024-02-26T03:39:20;99534.28;;;7.33;100.00
59608;BME280;45426;44.726;10.390;2024-02-26T03:41:47;99536.16;;;6.99;100.00
59608;BME280;45426;44.726;10.390;2024-02-26T03:44:13;99534.31;;;6.70;100.00
59608;BME280;45426;44.726;10.390;2024-02-26T03:46:38;99539.31;;;7.01;100.00
59608;BME280;45426;44.726;10.390;2024-02-26T03:49:04;99530.53;;;7.58;100.00
59608;BME280;45426;44.726;10.390;2024-02-26T03:51:29;99538.25;;;7.35;100.00
59608;BME280;45426;44.726;10.390;2024-02-26T03:53:57;99542.06;;;7.68;100.00
59608;BME280;45426;44.726;10.390;2024-02-26T03:56:23;99538.97;;;7.45;100.00
59608;BME280;45426;44.726;10.390;2024-02-26T03:58:49;99533.88;;;7.43;100.00
59608;BME280;45426;44.726;10.390;2024-02-26T04:01:14;99534.53;;;7.40;100.00
59608;BME280;45426;44.726;10.390;2024-02-26T04:03:39;99532.41;;;7.79;100.00
59608;BME280;45426;44.726;10.390;2024-02-26T04:06:08;99541.53;;;7.41;100.00
59608;BME280;45426;44.726;10.390;2024-02-26T04:08:35;99543.91;;;7.43;100.00
59608;BME280;45426;44.726;10.390;2024-02-26T04:11:00;99548.22;;;7.23;100.00
59608;BME280;45426;44.726;10.390;2024-02-26T04:13:25;99557.38;;;7.64;100.00
59608;BME280;45426;44.726;10.390;2024-02-26T04:15:51;99549.53;;;7.71;100.00
59608;BME280;45426;44.726;10.390;2024-02-26T04:18:16;99551.81;;;7.93;100.00
59608;BME280;45426;44.726;10.390;2024-02-26T04:20:42;99547.09;;;8.03;100.00
59608;BME280;45426;44.726;10.390;2024-02-26T04:23:07;99568.59;;;7.87;100.00
59608;BME280;45426;44.726;10.390;2024-02-26T04:25:33;99568.50;;;8.08;100.00
59608;BME280;45426;44.726;10.390;2024-02-26T04:27:58;99550.94;;;8.14;100.00
59608;BME280;45426;44.726;10.390;2024-02-26T04:30:24;99546.97;;;8.11;100.00
59608;BME280;45426;44.726;10.390;2024-02-26T04:32:49;99561.50;;;7.82;100.00
59608;BME280;45426;44.726;10.390;2024-02-26T04:35:15;99558.00;;;7.94;100.00
59608;BME280;45426;44.726;10.390;2024-02-26T04:37:40;99541.00;;;8.06;100.00
59608;BME280;45426;44.726;10.390;2024-02-26T04:40:06;99534.03;;;8.17;100.00
59608;BME280;45426;44.726;10.390;2024-02-26T04:42:33;99528.50;;;8.13;100.00
59608;BME280;45426;44.726;10.390;2024-02-26T04:44:58;99522.75;;;8.15;100.00
59608;BME280;45426;44.726;10.390;2024-02-26T04:47:23;99524.00;;;8.18;100.00
59608;BME280;45426;44.726;10.390;2024-02-26T04:49:50;99518.81;;;8.12;100.00
59608;BME280;45426;44.726;10.390;2024-02-26T04:52:15;99514.72;;;7.82;100.00
59608;BME280;45426;44.726;10.390;2024-02-26T04:54:41;99522.69;;;7.66;100.00
59608;BME280;45426;44.726;10.390;2024-02-26T04:57:06;99516.81;;;7.64;100.00
59608;BME280;45426;44.726;10.390;2024-02-26T04:59:32;99513.88;;;7.23;100.00
59608;BME280;45426;44.726;10.390;2024-02-26T05:01:57;99508.72;;;7.30;100.00
59608;BME280;45426;44.726;10.390;2024-02-26T05:04:22;99517.66;;;7.10;100.00
59608;BME280;45426;44.726;10.390;2024-02-26T05:06:48;99530.63;;;6.95;100.00
59608;BME280;45426;44.726;10.390;2024-02-26T05:09:13;99535.75;;;7.76;100.00
59608;BME280;45426;44.726;10.390;2024-02-26T05:11:39;99537.41;;;8.02;100.00
59608;BME280;45426;44.726;10.390;2024-02-26T05:14:04;99520.28;;;7.18;100.00
59608;BME280;45426;44.726;10.390;2024-02-26T05:16:29;99525.84;;;7.34;100.00
59608;BME280;45426;44.726;10.390;2024-02-26T05:18:56;99544.59;;;7.18;100.00
59608;BME280;45426;44.726;10.390;2024-02-26T05:21:22;99560.22;;;7.67;100.00
59608;BME280;45426;44.726;10.390;2024-02-26T05:23:47;99557.31;;;7.51;100.00
59608;BME280;45426;44.726;10.390;2024-02-26T05:26:22;99585.69;;;7.03;100.00
59608;BME280;45426;44.726;10.390;2024-02-26T05:28:47;99572.34;;;7.61;100.00
59608;BME280;45426;44.726;10.390;2024-02-26T05:31:13;99577.03;;;7.85;100.00
59608;BME280;45426;44.726;10.390;2024-02-26T05:33:39;99581.00;;;7.88;100.00
59608;BME280;45426;44.726;10.390;2024-02-26T05:36:05;99578.69;;;7.44;100.00
59608;BME280;45426;44.726;10.390;2024-02-26T05:38:30;99568.94;;;7.31;100.00
59608;BME280;45426;44.726;10.390;2024-02-26T05:40:57;99572.38;;;7.40;100.00
59608;BME280;45426;44.726;10.390;2024-02-26T05:43:24;99579.63;;;7.06;100.00
59608;BME280;45426;44.726;10.390;2024-02-26T05:45:50;99592.66;;;7.46;100.00
59608;BME280;45426;44.726;10.390;2024-02-26T05:48:15;99580.00;;;7.59;100.00
59608;BME280;45426;44.726;10.390;2024-02-26T05:50:41;99575.75;;;7.70;100.00
59608;BME280;45426;44.726;10.390;2024-02-26T05:53:06;99581.47;;;7.35;100.00
59608;BME280;45426;44.726;10.390;2024-02-26T05:55:31;99593.19;;;7.61;100.00
59608;BME280;45426;44.726;10.390;2024-02-26T05:57:57;99586.53;;;7.58;100.00
59608;BME280;45426;44.726;10.390;2024-02-26T06:00:22;99587.03;;;7.39;100.00
59608;BME280;45426;44.726;10.390;2024-02-26T06:02:48;99586.66;;;7.62;100.00
59608;BME280;45426;44.726;10.390;2024-02-26T06:05:13;99587.06;;;7.51;100.00
59608;BME280;45426;44.726;10.390;2024-02-26T06:07:38;99590.22;;;7.53;100.00
59608;BME280;45426;44.726;10.390;2024-02-26T06:10:05;99585.41;;;7.59;100.00
59608;BME280;45426;44.726;10.390;2024-02-26T06:12:30;99598.81;;;7.34;100.00
59608;BME280;45426;44.726;10.390;2024-02-26T06:14:56;99588.72;;;7.02;100.00
59608;BME280;45426;44.726;10.390;2024-02-26T06:17:22;99600.59;;;7.30;100.00
59608;BME280;45426;44.726;10.390;2024-02-26T06:19:47;99602.66;;;6.83;100.00
59608;BME280;45426;44.726;10.390;2024-02-26T06:22:13;99606.28;;;7.16;100.00
59608;BME280;45426;44.726;10.390;2024-02-26T06:24:39;99594.78;;;6.98;100.00
59608;BME280;45426;44.726;10.390;2024-02-26T06:27:04;99594.41;;;7.30;100.00
59608;BME280;45426;44.726;10.390;2024-02-26T06:29:29;99605.88;;;7.27;100.00
59608;BME280;45426;44.726;10.390;2024-02-26T06:31:55;99600.91;;;7.29;100.00
59608;BME280;45426;44.726;10.390;2024-02-26T06:34:20;99600.66;;;7.43;100.00
59608;BME280;45426;44.726;10.390;2024-02-26T06:36:46;99595.97;;;6.89;100.00
59608;BME280;45426;44.726;10.390;2024-02-26T06:39:12;99603.69;;;6.69;100.00
59608;BME280;45426;44.726;10.390;2024-02-26T06:41:38;99600.59;;;7.09;100.00
59608;BME280;45426;44.726;10.390;2024-02-26T06:44:04;99592.28;;;6.93;100.00
59608;BME280;45426;44.726;10.390;2024-02-26T06:46:30;99598.56;;;6.47;100.00
59608;BME280;45426;44.726;10.390;2024-02-26T06:48:56;99593.59;;;6.87;100.00
59608;BME280;45426;44.726;10.390;2024-02-26T06:51:22;99593.44;;;6.84;100.00
59608;BME280;45426;44.726;10.390;2024-02-26T06:53:47;99589.66;;;6.85;100.00
59608;BME280;45426;44.726;10.390;2024-02-26T06:56:13;99592.25;;;6.72;100.00
59608;BME280;45426;44.726;10.390;2024-02-26T06:58:38;99588.03;;;6.84;100.00
59608;BME280;45426;44.726;10.390;2024-02-26T07:01:04;99582.69;;;6.75;100.00
59608;BME280;45426;44.726;10.390;2024-02-26T07:03:29;99588.28;;;7.21;100.00
59608;BME280;45426;44.726;10.390;2024-02-26T07:05:55;99584.38;;;7.30;100.00
59608;BME280;45426;44.726;10.390;2024-02-26T07:08:21;99582.88;;;7.21;100.00
59608;BME280;45426;44.726;10.390;2024-02-26T07:10:46;99594.19;;;6.93;100.00
59608;BME280;45426;44.726;10.390;2024-02-26T07:13:12;99592.91;;;7.53;100.00
59608;BME280;45426;44.726;10.390;2024-02-26T07:15:37;99590.44;;;7.48;100.00
59608;BME280;45426;44.726;10.390;2024-02-26T07:18:03;99583.00;;;7.24;100.00
59608;BME280;45426;44.726;10.390;2024-02-26T07:20:29;99582.19;;;7.45;100.00
59608;BME280;45426;44.726;10.390;2024-02-26T07:22:55;99580.22;;;7.54;100.00
59608;BME280;45426;44.726;10.390;2024-02-26T07:25:21;99573.63;;;7.76;100.00
59608;BME280;45426;44.726;10.390;2024-02-26T07:27:46;99582.53;;;7.43;100.00
59608;BME280;45426;44.726;10.390;2024-02-26T07:30:12;99583.28;;;7.31;100.00
59608;BME280;45426;44.726;10.390;2024-02-26T07:32:38;99592.22;;;7.23;100.00
59608;BME280;45426;44.726;10.390;2024-02-26T07:35:04;99598.56;;;7.48;100.00
59608;BME280;45426;44.726;10.390;2024-02-26T07:37:30;99595.09;;;7.60;100.00
59608;BME280;45426;44.726;10.390;2024-02-26T07:39:55;99584.31;;;7.72;100.00
59608;BME280;45426;44.726;10.390;2024-02-26T07:42:21;99576.97;;;8.19;100.00
59608;BME280;45426;44.726;10.390;2024-02-26T07:44:46;99573.63;;;8.22;100.00
59608;BME280;45426;44.726;10.390;2024-02-26T07:47:11;99569.44;;;8.24;100.00
59608;BME280;45426;44.726;10.390;2024-02-26T07:49:37;99569.19;;;8.05;100.00
59608;BME280;45426;44.726;10.390;2024-02-26T07:52:03;99573.69;;;8.01;100.00
59608;BME280;45426;44.726;10.390;2024-02-26T07:54:28;99587.38;;;7.50;100.00
59608;BME280;45426;44.726;10.390;2024-02-26T07:56:54;99590.47;;;7.61;100.00
59608;BME280;45426;44.726;10.390;2024-02-26T07:59:19;99602.50;;;7.30;100.00
59608;BME280;45426;44.726;10.390;2024-02-26T08:01:49;99591.75;;;7.42;100.00
59608;BME280;45426;44.726;10.390;2024-02-26T08:04:15;99595.59;;;7.20;100.00
59608;BME280;45426;44.726;10.390;2024-02-26T08:06:40;99596.69;;;6.98;100.00
59608;BME280;45426;44.726;10.390;2024-02-26T08:09:05;99589.91;;;7.34;100.00
59608;BME280;45426;44.726;10.390;2024-02-26T08:11:31;99593.44;;;7.68;100.00
59608;BME280;45426;44.726;10.390;2024-02-26T08:13:57;99595.16;;;7.51;100.00
59608;BME280;45426;44.726;10.390;2024-02-26T08:16:24;99598.63;;;7.18;100.00
59608;BME280;45426;44.726;10.390;2024-02-26T08:18:49;99593.94;;;7.28;100.00
59608;BME280;45426;44.726;10.390;2024-02-26T08:21:15;99595.13;;;6.67;100.00
59608;BME280;45426;44.726;10.390;2024-02-26T08:23:42;99600.25;;;7.32;100.00
59608;BME280;45426;44.726;10.390;2024-02-26T08:26:07;99586.78;;;7.44;100.00
59608;BME280;45426;44.726;10.390;2024-02-26T08:28:36;99588.19;;;7.29;100.00
59608;BME280;45426;44.726;10.390;2024-02-26T08:31:02;99596.97;;;7.26;100.00
59608;BME280;45426;44.726;10.390;2024-02-26T08:33:27;99592.78;;;7.50;100.00
59608;BME280;45426;44.726;10.390;2024-02-26T08:35:53;99585.16;;;7.31;100.00
59608;BME280;45426;44.726;10.390;2024-02-26T08:38:18;99582.25;;;7.36;100.00
59608;BME280;45426;44.726;10.390;2024-02-26T08:40:44;99590.25;;;7.32;100.00
59608;BME280;45426;44.726;10.390;2024-02-26T08:43:09;99583.31;;;7.44;100.00
59608;BME280;45426;44.726;10.390;2024-02-26T08:45:34;99578.94;;;7.51;100.00
59608;BME280;45426;44.726;10.390;2024-02-26T08:48:03;99570.09;;;8.09;100.00
59608;BME280;45426;44.726;10.390;2024-02-26T08:50:28;99568.72;;;7.90;100.00
59608;BME280;45426;44.726;10.390;2024-02-26T08:52:54;99573.25;;;8.11;100.00
59608;BME280;45426;44.726;10.390;2024-02-26T08:55:19;99565.91;;;7.99;100.00
59608;BME280;45426;44.726;10.390;2024-02-26T08:57:45;99571.59;;;8.31;100.00
59608;BME280;45426;44.726;10.390;2024-02-26T09:00:10;99559.66;;;8.44;100.00
59608;BME280;45426;44.726;10.390;2024-02-26T09:02:36;99558.41;;;7.71;100.00
59608;BME280;45426;44.726;10.390;2024-02-26T09:05:05;99558.81;;;8.07;100.00
59608;BME280;45426;44.726;10.390;2024-02-26T09:07:31;99548.25;;;8.14;100.00
59608;BME280;45426;44.726;10.390;2024-02-26T09:09:56;99543.16;;;8.12;100.00
59608;BME280;45426;44.726;10.390;2024-02-26T09:12:21;99536.97;;;8.24;100.00
59608;BME280;45426;44.726;10.390;2024-02-26T09:14:47;99542.59;;;8.07;100.00
59608;BME280;45426;44.726;10.390;2024-02-26T09:17:12;99531.56;;;8.49;100.00
59608;BME280;45426;44.726;10.390;2024-02-26T09:19:38;99524.16;;;8.46;100.00
59608;BME280;45426;44.726;10.390;2024-02-26T09:22:04;99516.09;;;8.37;100.00
59608;BME280;45426;44.726;10.390;2024-02-26T09:24:29;99524.00;;;8.30;100.00
59608;BME280;45426;44.726;10.390;2024-02-26T09:26:55;99517.84;;;7.71;100.00
59608;BME280;45426;44.726;10.390;2024-02-26T09:29:21;99529.50;;;7.84;100.00
59608;BME280;45426;44.726;10.390;2024-02-26T09:31:46;99514.66;;;8.52;100.00
59608;BME280;45426;44.726;10.390;2024-02-26T09:34:14;99521.19;;;8.63;100.00
59608;BME280;45426;44.726;10.390;2024-02-26T09:36:40;99520.28;;;8.59;100.00
59608;BME280;45426;44.726;10.390;2024-02-26T09:39:05;99523.66;;;8.07;100.00
59608;BME280;45426;44.726;10.390;2024-02-26T09:41:32;99529.66;;;8.49;100.00
59608;BME280;45426;44.726;10.390;2024-02-26T09:43:58;99526.22;;;8.77;100.00
59608;BME280;45426;44.726;10.390;2024-02-26T09:46:28;99526.16;;;8.49;100.00
59608;BME280;45426;44.726;10.390;2024-02-26T09:48:54;99519.81;;;8.69;100.00
59608;BME280;45426;44.726;10.390;2024-02-26T09:51:22;99516.38;;;8.97;100.00
59608;BME280;45426;44.726;10.390;2024-02-26T09:53:52;99505.09;;;8.83;100.00
59608;BME280;45426;44.726;10.390;2024-02-26T09:56:17;99515.53;;;8.19;100.00
59608;BME280;45426;44.726;10.390;2024-02-26T09:58:43;99518.69;;;8.70;100.00
59608;BME280;45426;44.726;10.390;2024-02-26T10:01:16;99520.66;;;8.98;100.00
59608;BME280;45426;44.726;10.390;2024-02-26T10:03:42;99510.34;;;8.63;100.00
59608;BME280;45426;44.726;10.390;2024-02-26T10:06:10;99515.94;;;8.83;100.00
59608;BME280;45426;44.726;10.390;2024-02-26T10:08:37;99509.53;;;9.16;100.00
59608;BME280;45426;44.726;10.390;2024-02-26T10:11:13;99517.06;;;8.94;100.00
59608;BME280;45426;44.726;10.390;2024-02-26T10:13:39;99520.38;;;8.75;100.00
59608;BME280;45426;44.726;10.390;2024-02-26T10:16:05;99520.13;;;8.92;100.00
59608;BME280;45426;44.726;10.390;2024-02-26T10:18:51;99525.56;;;9.49;100.00
59608;BME280;45426;44.726;10.390;2024-02-26T10:21:18;99519.50;;;9.56;100.00
59608;BME280;45426;44.726;10.390;2024-02-26T10:23:44;99522.69;;;9.58;100.00
59608;BME280;45426;44.726;10.390;2024-02-26T10:26:14;99515.88;;;9.64;100.00
59608;BME280;45426;44.726;10.390;2024-02-26T10:28:41;99529.91;;;9.38;100.00
59608;BME280;45426;44.726;10.390;2024-02-26T10:31:08;99524.22;;;9.43;100.00
59608;BME280;45426;44.726;10.390;2024-02-26T10:33:38;99523.31;;;9.39;100.00
59608;BME280;45426;44.726;10.390;2024-02-26T10:36:07;99527.03;;;9.46;100.00
59608;BME280;45426;44.726;10.390;2024-02-26T10:38:34;99523.31;;;9.39;100.00
59608;BME280;45426;44.726;10.390;2024-02-26T10:41:02;99529.09;;;9.65;100.00
59608;BME280;45426;44.726;10.390;2024-02-26T10:43:28;99520.41;;;9.60;100.00
59608;BME280;45426;44.726;10.390;2024-02-26T10:45:57;99523.63;;;9.49;100.00
59608;BME280;45426;44.726;10.390;2024-02-26T10:48:23;99526.19;;;9.30;100.00
59608;BME280;45426;44.726;10.390;2024-02-26T10:50:49;99528.31;;;9.37;100.00
59608;BME280;45426;44.726;10.390;2024-02-26T10:53:28;99522.28;;;8.87;100.00
59608;BME280;45426;44.726;10.390;2024-02-26T10:55:57;99521.19;;;8.51;100.00
59608;BME280;45426;44.726;10.390;2024-02-26T10:58:24;99522.19;;;9.11;100.00
59608;BME280;45426;44.726;10.390;2024-02-26T11:00:51;99515.78;;;9.04;100.00
59608;BME280;45426;44.726;10.390;2024-02-26T11:03:16;99505.63;;;9.29;100.00
59608;BME280;45426;44.726;10.390;2024-02-26T11:05:47;99499.38;;;9.12;100.00
59608;BME280;45426;44.726;10.390;2024-02-26T11:08:13;99492.09;;;9.73;100.00
59608;BME280;45426;44.726;10.390;2024-02-26T11:10:40;99490.84;;;9.55;100.00
59608;BME280;45426;44.726;10.390;2024-02-26T11:13:06;99482.63;;;9.23;100.00
59608;BME280;45426;44.726;10.390;2024-02-26T11:15:34;99490.38;;;9.08;100.00
59608;BME280;45426;44.726;10.390;2024-02-26T11:18:01;99490.66;;;9.47;100.00
59608;BME280;45426;44.726;10.390;2024-02-26T11:20:28;99489.16;;;9.06;100.00
59608;BME280;45426;44.726;10.390;2024-02-26T11:22:55;99487.41;;;9.13;100.00
59608;BME280;45426;44.726;10.390;2024-02-26T11:25:21;99475.69;;;9.09;100.00
59608;BME280;45426;44.726;10.390;2024-02-26T11:27:54;99475.25;;;9.07;100.00
59608;BME280;45426;44.726;10.390;2024-02-26T11:30:25;99475.91;;;9.17;100.00
59608;BME280;45426;44.726;10.390;2024-02-26T11:32:52;99474.69;;;9.30;100.00
59608;BME280;45426;44.726;10.390;2024-02-26T11:35:18;99463.72;;;9.55;100.00
59608;BME280;45426;44.726;10.390;2024-02-26T11:37:55;99460.84;;;9.79;100.00
59608;BME280;45426;44.726;10.390;2024-02-26T11:40:23;99459.97;;;9.15;100.00
59608;BME280;45426;44.726;10.390;2024-02-26T11:42:50;99461.19;;;9.18;100.00
59608;BME280;45426;44.726;10.390;2024-02-26T11:50:45;99450.91;;;9.23;100.00
59608;BME280;45426;44.726;10.390;2024-02-26T11:53:46;99447.28;;;9.63;100.00
59608;BME280;45426;44.726;10.390;2024-02-26T11:58:41;99427.31;;;9.87;100.00
59608;BME280;45426;44.726;10.390;2024-02-26T12:04:05;99422.38;;;10.25;100.00
59608;BME280;45426;44.726;10.390;2024-02-26T12:06:31;99419.50;;;10.18;100.00
59608;BME280;45426;44.726;10.390;2024-02-26T12:09:05;99413.59;;;9.64;100.00
59608;BME280;45426;44.726;10.390;2024-02-26T12:11:30;99405.78;;;9.95;100.00
59608;BME280;45426;44.726;10.390;2024-02-26T12:13:56;99393.22;;;10.22;100.00
59608;BME280;45426;44.726;10.390;2024-02-26T12:16:38;99385.41;;;10.01;100.00
59608;BME280;45426;44.726;10.390;2024-02-26T12:19:05;99382.50;;;9.94;100.00
59608;BME280;45426;44.726;10.390;2024-02-26T12:21:33;99388.66;;;9.59;100.00
59608;BME280;45426;44.726;10.390;2024-02-26T12:24:15;99386.63;;;10.39;100.00
59608;BME280;45426;44.726;10.390;2024-02-26T12:26:43;99389.75;;;10.05;100.00
59608;BME280;45426;44.726;10.390;2024-02-26T12:29:08;99388.25;;;9.73;100.00
59608;BME280;45426;44.726;10.390;2024-02-26T12:31:35;99372.03;;;9.76;100.00
59608;BME280;45426;44.726;10.390;2024-02-26T12:34:03;99363.91;;;9.28;100.00
59608;BME280;45426;44.726;10.390;2024-02-26T12:36:28;99373.19;;;9.59;100.00
59608;BME280;45426;44.726;10.390;2024-02-26T12:38:54;99367.59;;;9.68;100.00
59608;BME280;45426;44.726;10.390;2024-02-26T12:41:21;99353.72;;;10.24;100.00
59608;BME280;45426;44.726;10.390;2024-02-26T12:43:47;99349.63;;;9.79;100.00
59608;BME280;45426;44.726;10.390;2024-02-26T12:46:12;99357.16;;;9.70;100.00
59608;BME280;45426;44.726;10.390;2024-02-26T12:48:44;99364.53;;;9.69;100.00
59608;BME280;45426;44.726;10.390;2024-02-26T12:51:12;99364.47;;;10.01;100.00
59608;BME280;45426;44.726;10.390;2024-02-26T12:53:38;99365.97;;;9.99;100.00
59608;BME280;45426;44.726;10.390;2024-02-26T12:56:06;99364.84;;;10.19;100.00